Time;durP1;ratioP1;P1;durP2;ratioP2;P2;SDS_P1;SDS_P2;PMS_P1;PMS_P2;Temp;Humidity;BMP_temperature;BMP_pressure;BME280_temperature;BME280_humidity;BME280_pressure;Samples;Min_cycle;Max_cycle;Signal;HPM_P1;HPM_P2
2022/07/05 00:00:12;;;;;;;2.28;1.38;;;;;;;21.14;54.63;100821.59;4996881;28;20044;-61
2022/07/05 00:02:38;;;;;;;2.55;1.55;;;;;;;20.98;54.64;100827.00;5015677;28;20030;-61
2022/07/05 00:05:04;;;;;;;2.05;1.40;;;;;;;20.90;55.09;100829.25;5024082;28;20096;-62
2022/07/05 00:07:29;;;;;;;4.45;1.42;;;;;;;20.82;55.27;100836.84;5005327;28;20046;-61
2022/07/05 00:09:57;;;;;;;2.75;1.70;;;;;;;20.69;55.53;100828.66;5007822;28;20489;-61
2022/07/05 00:12:28;;;;;;;3.25;2.00;;;;;;;20.81;55.22;100827.97;5000619;28;20064;-61
2022/07/05 00:14:54;;;;;;;5.00;1.45;;;;;;;20.70;55.34;100829.53;4989198;28;20033;-62
2022/07/05 00:17:19;;;;;;;3.90;1.70;;;;;;;20.56;55.30;100839.19;5020605;28;20036;-62
2022/07/05 00:19:45;;;;;;;1.95;1.50;;;;;;;20.31;55.82;100836.97;5011793;28;20044;-62
2022/07/05 00:22:11;;;;;;;2.83;1.67;;;;;;;20.23;56.13;100839.22;5028903;28;20037;-61
2022/07/05 00:24:36;;;;;;;2.67;1.60;;;;;;;20.19;56.30;100843.00;5024415;28;20438;-61
2022/07/05 00:27:02;;;;;;;4.40;1.98;;;;;;;20.24;56.19;100840.06;5014407;28;20046;-61
2022/07/05 00:29:28;;;;;;;3.67;1.67;;;;;;;20.43;55.58;100852.31;4998389;28;20037;-61
2022/07/05 00:31:54;;;;;;;2.80;1.88;;;;;;;20.44;55.35;100853.19;4992918;28;20038;-62
2022/07/05 00:34:19;;;;;;;3.03;1.52;;;;;;;20.59;55.57;100857.69;5018716;28;20091;-61
2022/07/05 00:36:45;;;;;;;2.50;1.90;;;;;;;20.63;55.42;100866.41;5006051;28;20048;-62
2022/07/05 00:39:10;;;;;;;2.90;1.63;;;;;;;20.55;55.70;100865.97;4994341;28;20026;-62
2022/07/05 00:41:36;;;;;;;2.55;1.52;;;;;;;20.60;55.54;100859.41;5010438;28;20378;-61
2022/07/05 00:44:08;;;;;;;2.90;1.83;;;;;;;20.70;55.44;100859.75;5002713;28;20029;-61
2022/07/05 00:46:35;;;;;;;4.30;1.80;;;;;;;20.89;54.96;100870.25;5022501;28;20029;-62
2022/07/05 00:49:01;;;;;;;4.03;1.90;;;;;;;20.98;54.26;100858.19;4993948;28;20069;-61
2022/07/05 00:51:29;;;;;;;3.17;2.20;;;;;;;20.99;54.24;100854.59;5007376;28;20121;-61
2022/07/05 00:53:55;;;;;;;4.72;2.53;;;;;;;20.94;54.54;100854.81;4992442;28;20042;-62
2022/07/05 00:56:23;;;;;;;3.00;2.10;;;;;;;21.00;54.20;100848.28;5019016;28;20119;-62
2022/07/05 00:58:48;;;;;;;3.03;2.33;;;;;;;20.90;54.31;100851.50;4989937;28;20093;-62
2022/07/05 01:01:16;;;;;;;4.10;2.00;;;;;;;20.87;54.42;100848.13;5019247;28;20034;-62
2022/07/05 01:03:43;;;;;;;2.75;2.03;;;;;;;20.88;54.65;100847.19;5017823;28;20030;-62
2022/07/05 01:06:11;;;;;;;2.55;1.75;;;;;;;20.85;54.48;100848.19;5024058;28;20041;-62
2022/07/05 01:08:39;;;;;;;2.70;1.95;;;;;;;20.71;54.74;100849.97;5001830;28;20032;-61
2022/07/05 01:11:06;;;;;;;2.95;1.90;;;;;;;20.56;55.04;100841.00;5030633;28;20033;-62
2022/07/05 01:13:31;;;;;;;3.13;2.33;;;;;;;20.51;55.08;100840.41;5044293;28;20043;-61
2022/07/05 01:15:58;;;;;;;5.00;2.55;;;;;;;20.24;55.68;100838.25;5023447;28;20128;-61
2022/07/05 01:18:24;;;;;;;3.60;2.10;;;;;;;20.06;56.20;100833.91;5007654;28;20406;-61
2022/07/05 01:20:50;;;;;;;3.58;2.20;;;;;;;19.91;56.37;100833.81;5003593;28;20119;-61
2022/07/05 01:23:19;;;;;;;2.97;2.10;;;;;;;19.83;56.81;100836.03;5019626;28;20095;-61
2022/07/05 01:25:47;;;;;;;4.30;2.03;;;;;;;19.74;57.07;100836.47;5033747;28;20036;-61
2022/07/05 01:28:13;;;;;;;4.28;2.03;;;;;;;19.43;57.48;100830.06;5030540;28;20026;-61
2022/07/05 01:30:40;;;;;;;4.40;1.95;;;;;;;19.56;57.21;100838.28;5009613;28;20033;-61
2022/07/05 01:33:06;;;;;;;3.25;2.17;;;;;;;19.57;57.10;100829.34;5021920;28;20404;-61
2022/07/05 01:35:32;;;;;;;3.67;2.00;;;;;;;19.64;56.91;100835.25;5034561;28;20056;-61
2022/07/05 01:37:58;;;;;;;3.63;1.92;;;;;;;19.61;56.71;100832.72;5027862;28;20098;-61
2022/07/05 01:40:24;;;;;;;3.25;1.85;;;;;;;19.64;56.71;100835.25;5018836;28;20042;-61
2022/07/05 01:42:49;;;;;;;4.38;2.38;;;;;;;19.60;56.79;100836.31;5035797;28;20041;-61
2022/07/05 01:45:39;;;;;;;4.88;2.65;;;;;;;19.61;56.92;100824.72;5040180;28;20041;-61
2022/07/05 01:48:02;;;;;;;3.33;2.30;;;;;;;19.48;57.37;100826.31;5032802;28;20397;-61
2022/07/05 01:50:31;;;;;;;2.42;1.50;;;;;;;19.64;57.06;100816.59;5023886;28;20045;-61
2022/07/05 01:53:00;;;;;;;4.43;2.17;;;;;;;19.25;57.75;100823.00;5019583;28;20034;-61
2022/07/05 01:55:26;;;;;;;4.85;2.38;;;;;;;19.53;57.23;100833.09;5022616;28;20044;-61
2022/07/05 01:57:51;;;;;;;3.45;2.15;;;;;;;19.36;57.47;100825.97;5007177;28;20041;-61
2022/07/05 02:00:17;;;;;;;2.58;1.90;;;;;;;19.47;57.05;100816.56;5040182;28;20029;-61
2022/07/05 02:02:44;;;;;;;6.32;2.53;;;;;;;19.53;56.95;100821.59;5035625;28;20041;-60
2022/07/05 02:05:09;;;;;;;3.80;2.15;;;;;;;19.58;56.88;100820.41;5018866;28;20037;-59
2022/07/05 02:07:34;;;;;;;3.63;2.10;;;;;;;19.66;56.53;100820.88;4996672;28;20392;-61
2022/07/05 02:10:00;;;;;;;3.42;1.88;;;;;;;19.65;56.76;100826.31;5042584;28;20040;-61
2022/07/05 02:12:25;;;;;;;4.10;2.25;;;;;;;19.71;56.64;100828.66;5038768;28;20049;-61
2022/07/05 02:14:51;;;;;;;3.53;2.10;;;;;;;19.59;56.67;100834.56;5018572;28;20033;-61
2022/07/05 02:17:16;;;;;;;2.72;2.20;;;;;;;19.83;56.22;100833.34;5022866;28;20061;-61
2022/07/05 02:19:42;;;;;;;2.65;1.98;;;;;;;19.91;55.74;100828.47;5025011;28;20045;-61
2022/07/05 02:22:07;;;;;;;4.80;2.10;;;;;;;20.02;55.72;100832.34;5035535;28;20100;-61
2022/07/05 02:24:33;;;;;;;2.22;1.73;;;;;;;20.10;55.47;100838.13;5017903;28;20064;-61
2022/07/05 02:26:59;;;;;;;2.63;1.83;;;;;;;20.14;55.14;100837.03;5009766;28;20039;-61
2022/07/05 02:29:24;;;;;;;3.60;2.20;;;;;;;20.25;54.60;100837.31;5044611;28;20064;-62
2022/07/05 02:31:50;;;;;;;4.72;2.75;;;;;;;20.22;54.79;100848.13;5045245;28;20029;-61
2022/07/05 02:34:15;;;;;;;2.67;2.10;;;;;;;20.23;54.73;100844.56;5042787;28;20036;-61
2022/07/05 02:36:41;;;;;;;3.20;1.88;;;;;;;20.15;54.71;100844.09;5030468;28;20036;-61
2022/07/05 02:39:06;;;;;;;3.50;2.13;;;;;;;20.29;54.44;100852.19;5035232;28;20476;-61
2022/07/05 02:41:32;;;;;;;3.63;2.00;;;;;;;20.17;54.65;100842.19;5037238;28;20033;-62
2022/07/05 02:43:57;;;;;;;4.00;2.50;;;;;;;20.33;54.28;100847.56;5045972;28;20044;-62
2022/07/05 02:46:23;;;;;;;4.15;1.75;;;;;;;20.12;54.97;100847.78;5004077;28;20041;-61
2022/07/05 02:48:51;;;;;;;5.35;2.50;;;;;;;20.04;54.89;100849.16;5007088;28;20465;-61
2022/07/05 02:51:17;;;;;;;3.53;2.20;;;;;;;20.23;54.77;100859.66;5031533;28;20033;-61
2022/07/05 02:53:42;;;;;;;3.40;2.03;;;;;;;20.41;54.22;100854.19;5029924;28;20029;-61
2022/07/05 02:56:07;;;;;;;4.10;2.08;;;;;;;20.47;54.08;100860.13;5009447;28;20040;-62
2022/07/05 02:58:33;;;;;;;2.72;1.73;;;;;;;20.28;54.47;100860.31;5025175;28;20037;-62
2022/07/05 03:00:58;;;;;;;2.97;1.80;;;;;;;20.41;54.15;100856.88;5036081;28;20159;-62
2022/07/05 03:03:24;;;;;;;4.32;2.25;;;;;;;20.44;54.03;100858.50;5029221;28;20033;-62
2022/07/05 03:05:49;;;;;;;4.38;2.28;;;;;;;20.47;53.81;100863.69;5017781;28;20370;-62
2022/07/05 03:08:15;;;;;;;3.63;1.90;;;;;;;19.91;54.82;100871.13;5018293;28;20045;-62
2022/07/05 03:10:40;;;;;;;2.85;1.98;;;;;;;19.58;55.81;100862.19;5036357;28;20477;-62
2022/07/05 03:13:06;;;;;;;2.80;2.15;;;;;;;19.35;56.20;100860.69;5035186;28;20103;-61
2022/07/05 03:15:32;;;;;;;3.97;2.22;;;;;;;19.33;56.51;100862.56;5021324;28;20112;-61
2022/07/05 03:17:57;;;;;;;2.15;1.73;;;;;;;19.52;56.20;100868.69;5042063;28;20392;-61
2022/07/05 03:20:23;;;;;;;3.20;1.83;;;;;;;19.80;55.41;100864.66;5018762;28;20038;-62
2022/07/05 03:22:48;;;;;;;3.15;1.80;;;;;;;19.85;55.40;100866.13;5049818;28;20036;-61
2022/07/05 03:25:14;;;;;;;2.95;1.90;;;;;;;20.13;55.15;100864.66;5023747;28;20039;-61
2022/07/05 03:27:39;;;;;;;2.53;1.60;;;;;;;20.35;54.23;100867.03;5017773;28;20040;-61
2022/07/05 03:30:05;;;;;;;4.57;2.00;;;;;;;20.67;53.76;100859.94;5020261;28;20405;-61
2022/07/05 03:32:31;;;;;;;4.10;1.80;;;;;;;20.73;53.55;100856.06;5049142;28;20064;-61
2022/07/05 03:34:56;;;;;;;3.63;1.90;;;;;;;20.67;53.39;100858.13;5041855;28;20073;-62
2022/07/05 03:37:22;;;;;;;3.05;1.88;;;;;;;20.70;53.66;100858.88;5038813;28;20065;-61
2022/07/05 03:39:51;;;;;;;4.70;2.03;;;;;;;20.83;53.40;100862.63;5027411;28;20048;-61
2022/07/05 03:42:16;;;;;;;3.45;2.25;;;;;;;20.90;53.19;100858.63;5018788;28;20382;-61
2022/07/05 03:44:42;;;;;;;2.53;2.10;;;;;;;20.97;53.12;100867.16;5026161;28;20099;-61
2022/07/05 03:47:07;;;;;;;7.55;2.50;;;;;;;20.99;53.03;100874.13;5032030;28;20475;-61
2022/07/05 03:49:33;;;;;;;4.00;2.30;;;;;;;21.09;53.44;100871.78;5045667;28;20095;-61
2022/07/05 03:51:58;;;;;;;4.38;2.22;;;;;;;21.18;52.82;100868.56;5032927;28;20037;-61
2022/07/05 03:54:24;;;;;;;5.25;2.50;;;;;;;21.09;53.13;100867.31;5003808;28;20417;-61
2022/07/05 03:56:49;;;;;;;3.97;1.75;;;;;;;20.98;53.71;100856.38;4989020;28;20469;-61
2022/07/05 03:59:15;;;;;;;3.83;2.67;;;;;;;21.00;53.61;100861.66;5018826;28;20026;-61
2022/07/05 04:01:40;;;;;;;2.20;1.90;;;;;;;21.04;53.83;100860.53;5018116;28;20037;-61
2022/07/05 04:04:05;;;;;;;3.38;2.15;;;;;;;21.10;53.49;100862.81;5040343;28;20061;-62
2022/07/05 04:06:31;;;;;;;5.93;2.17;;;;;;;21.42;52.79;100863.63;5040626;28;20041;-61
2022/07/05 04:08:56;;;;;;;2.97;2.00;;;;;;;21.48;52.75;100859.75;5031775;28;20037;-61
2022/07/05 04:11:22;;;;;;;3.40;2.15;;;;;;;21.61;52.45;100866.09;5006827;28;20032;-61
2022/07/05 04:13:50;;;;;;;3.35;2.30;;;;;;;21.59;52.48;100859.97;5046929;28;20475;-61
2022/07/05 04:16:15;;;;;;;5.43;2.80;;;;;;;21.68;52.16;100867.44;5022190;28;20044;-61
2022/07/05 04:18:41;;;;;;;4.18;2.30;;;;;;;21.73;52.14;100876.03;5007514;28;20401;-61
2022/07/05 04:21:07;;;;;;;3.88;2.10;;;;;;;21.89;51.88;100875.97;5040053;28;20099;-62
2022/07/05 04:23:32;;;;;;;4.32;2.55;;;;;;;21.99;51.62;100887.84;5018307;28;20032;-61
2022/07/05 04:26:00;;;;;;;5.97;2.60;;;;;;;22.13;51.07;100889.69;5032306;28;20038;-61
2022/07/05 04:28:26;;;;;;;4.57;2.50;;;;;;;22.17;51.12;100898.41;5033868;28;20072;-62
2022/07/05 04:30:52;;;;;;;3.72;2.35;;;;;;;22.17;51.34;100898.41;5034723;28;20069;-61
2022/07/05 04:33:17;;;;;;;5.60;2.85;;;;;;;22.07;51.67;100908.78;5020719;28;20038;-61
2022/07/05 04:35:42;;;;;;;6.05;2.92;;;;;;;22.21;51.44;100898.09;5032018;28;20400;-61
2022/07/05 04:38:08;;;;;;;4.22;2.60;;;;;;;22.42;51.22;100889.69;5044075;28;20043;-62
2022/07/05 04:40:33;;;;;;;3.55;2.38;;;;;;;22.53;50.80;100889.88;5021123;28;20044;-61
2022/07/05 04:42:59;;;;;;;4.97;2.97;;;;;;;22.73;50.31;100894.81;5042912;28;20041;-62
2022/07/05 04:45:24;;;;;;;6.30;2.47;;;;;;;22.57;50.71;100894.94;5041084;28;20115;-62
2022/07/05 04:47:49;;;;;;;5.78;3.20;;;;;;;22.05;51.39;100887.44;5036509;28;20066;-61
2022/07/05 04:50:15;;;;;;;4.80;2.47;;;;;;;21.82;51.95;100885.31;5018326;28;20458;-60
2022/07/05 04:52:40;;;;;;;5.18;2.80;;;;;;;21.41;53.06;100888.66;5028618;28;20091;-59
2022/07/05 04:55:06;;;;;;;5.50;2.80;;;;;;;21.31;53.20;100890.13;5041153;28;20466;-60
2022/07/05 04:57:41;;;;;;;3.13;2.42;;;;;;;21.07;54.08;100884.41;5036791;28;20543;-61
2022/07/05 05:00:08;;;;;;;6.32;3.03;;;;;;;21.20;53.35;100887.22;4995827;28;20037;-60
2022/07/05 05:02:34;;;;;;;4.53;2.35;;;;;;;21.50;52.47;100889.91;5041713;28;20037;-60
2022/07/05 05:04:59;;;;;;;5.18;2.10;;;;;;;21.86;51.87;100894.88;5048710;28;20048;-60
2022/07/05 05:07:25;;;;;;;3.40;1.80;;;;;;;21.95;51.53;100891.66;5053085;28;20045;-60
2022/07/05 05:09:50;;;;;;;3.70;2.20;;;;;;;21.97;51.63;100886.22;5036280;28;20099;-61
2022/07/05 05:12:16;;;;;;;4.22;1.88;;;;;;;22.20;51.05;100888.38;5032520;28;20045;-61
2022/07/05 05:14:41;;;;;;;5.07;1.60;;;;;;;22.42;50.94;100889.69;5024954;28;20038;-60
2022/07/05 05:17:07;;;;;;;2.65;1.85;;;;;;;22.58;50.95;100890.44;5033167;28;20037;-60
2022/07/05 05:19:32;;;;;;;4.03;2.30;;;;;;;23.08;49.58;100886.34;5025014;28;20025;-60
2022/07/05 05:21:58;;;;;;;3.60;2.10;;;;;;;23.17;49.09;100885.72;5035256;28;20068;-60
2022/07/05 05:24:23;;;;;;;2.55;1.83;;;;;;;23.65;48.49;100894.09;5036598;28;20053;-60
2022/07/05 05:26:50;;;;;;;3.75;2.15;;;;;;;23.75;47.90;100897.94;5035213;28;20037;-60
2022/07/05 05:29:16;;;;;;;3.42;2.60;;;;;;;24.16;47.18;100898.69;5028664;28;20040;-61
2022/07/05 05:31:41;;;;;;;3.30;2.35;;;;;;;24.30;46.94;100895.91;5016571;28;20029;-60
2022/07/05 05:34:07;;;;;;;4.82;2.17;;;;;;;24.42;46.72;100895.06;5046848;28;20037;-63
2022/07/05 05:36:32;;;;;;;2.97;1.95;;;;;;;24.29;46.96;100894.16;5002150;28;20124;-62
2022/07/05 05:38:58;;;;;;;2.78;1.70;;;;;;;24.70;46.13;100902.00;5012786;28;20034;-60
2022/07/05 05:41:23;;;;;;;9.90;3.65;;;;;;;24.66;45.48;100905.03;5045274;28;20044;-60
2022/07/05 05:43:49;;;;;;;2.40;1.40;;;;;;;24.76;45.99;100904.22;5038336;28;20041;-61
2022/07/05 05:46:14;;;;;;;4.35;1.40;;;;;;;24.67;45.96;100898.66;5030960;28;20076;-61
2022/07/05 05:48:40;;;;;;;3.25;1.33;;;;;;;24.56;45.85;100910.19;5035440;28;20124;-60
2022/07/05 05:51:05;;;;;;;3.30;1.30;;;;;;;24.65;46.06;100909.50;5043908;28;20037;-60
2022/07/05 05:53:31;;;;;;;2.55;1.10;;;;;;;24.79;45.42;100916.59;5029060;28;20030;-61
2022/07/05 05:55:56;;;;;;;2.55;1.10;;;;;;;24.82;44.83;100921.75;5025966;28;20044;-60
2022/07/05 05:58:26;;;;;;;4.88;1.20;;;;;;;25.12;44.25;100917.78;5034609;28;20026;-61
2022/07/05 06:00:52;;;;;;;2.17;1.17;;;;;;;25.25;44.36;100924.81;5019899;28;20071;-60
2022/07/05 06:03:26;;;;;;;3.63;1.40;;;;;;;25.35;43.58;100924.16;5032714;28;20091;-61
2022/07/05 06:05:52;;;;;;;2.35;1.20;;;;;;;25.19;45.27;100930.66;5028925;28;20083;-60
2022/07/05 06:08:20;;;;;;;3.25;1.30;;;;;;;25.39;44.07;100931.03;5045672;28;20029;-60
2022/07/05 06:10:46;;;;;;;2.25;0.90;;;;;;;25.63;43.18;100934.53;5049960;28;20040;-60
2022/07/05 06:13:13;;;;;;;2.95;1.40;;;;;;;25.75;42.58;100932.75;5051029;28;20049;-60
2022/07/05 06:15:40;;;;;;;3.22;1.17;;;;;;;25.82;42.15;100935.88;5011518;28;20030;-60
2022/07/05 06:18:08;;;;;;;1.65;1.05;;;;;;;25.78;42.45;100930.72;5000512;28;20040;-61
2022/07/05 06:20:36;;;;;;;2.63;1.00;;;;;;;25.82;43.04;100935.88;5016778;28;20091;-61
2022/07/05 06:23:04;;;;;;;2.65;1.17;;;;;;;25.43;41.70;100935.19;5036275;28;20392;-61
2022/07/05 06:25:31;;;;;;;2.47;0.93;;;;;;;25.40;41.77;100930.91;5031948;28;20508;-61
2022/07/05 06:28:03;;;;;;;1.83;0.88;;;;;;;25.56;42.40;100935.97;5001270;28;20033;-61
2022/07/05 06:30:31;;;;;;;2.28;1.00;;;;;;;25.80;42.89;100931.44;5034516;28;20036;-61
2022/07/05 06:32:58;;;;;;;2.33;1.08;;;;;;;26.06;42.76;100935.81;5019728;28;20392;-61
2022/07/05 06:35:23;;;;;;;1.70;1.08;;;;;;;26.19;41.65;100942.78;5054271;28;20028;-61
2022/07/05 06:37:52;;;;;;;2.80;0.88;;;;;;;26.32;38.12;100940.00;5054464;28;20032;-61
2022/07/05 06:40:19;;;;;;;1.60;0.70;;;;;;;26.44;41.11;100930.06;5036475;28;20473;-61
2022/07/05 06:42:45;;;;;;;2.00;0.90;;;;;;;26.87;39.31;100943.69;5036704;28;20040;-60
2022/07/05 06:45:11;;;;;;;2.28;0.93;;;;;;;26.96;39.65;100939.38;5019684;28;20072;-61
2022/07/05 06:47:36;;;;;;;5.25;1.20;;;;;;;27.24;40.05;100932.59;5019150;28;20156;-61
2022/07/05 06:50:03;;;;;;;2.25;0.90;;;;;;;27.09;39.13;100948.19;5053866;28;20080;-61
2022/07/05 06:52:29;;;;;;;1.38;0.77;;;;;;;27.29;39.93;100935.78;5019883;28;20040;-61
2022/07/05 06:54:55;;;;;;;3.50;0.93;;;;;;;27.65;39.95;100945.34;5036163;28;20041;-61
2022/07/05 06:57:21;;;;;;;1.92;1.20;;;;;;;27.88;39.11;100947.94;5036342;28;20473;-61
2022/07/05 06:59:47;;;;;;;3.97;1.30;;;;;;;27.81;38.12;100950.31;4999535;28;20065;-61
2022/07/05 07:02:13;;;;;;;2.67;0.98;;;;;;;27.62;39.24;100947.44;4980380;28;20477;-61
2022/07/05 07:04:38;;;;;;;2.65;0.82;;;;;;;27.37;39.67;100941.41;4996412;28;20133;-61
2022/07/05 07:09:17;;;;;;;3.08;0.93;;;;;;;27.55;39.40;100944.38;5015526;28;20252;-61
2022/07/05 07:09:49;;;;;;;1.25;0.80;;;;;;;27.47;38.19;100936.09;5033541;28;20064;-61
2022/07/05 07:12:14;;;;;;;1.27;0.60;;;;;;;27.87;38.04;100949.78;5049065;28;20463;-61
2022/07/05 07:14:43;;;;;;;3.15;0.82;;;;;;;27.99;36.44;100943.34;5033689;28;20033;-61
2022/07/05 07:17:08;;;;;;;1.95;0.63;;;;;;;28.08;37.32;100936.28;4998475;28;20071;-61
2022/07/05 07:19:34;;;;;;;1.05;0.50;;;;;;;28.22;38.05;100944.06;5033903;28;20034;-58
2022/07/05 07:21:59;;;;;;;2.25;0.80;;;;;;;28.24;37.83;100941.19;5016190;28;20092;-61
2022/07/05 07:24:24;;;;;;;1.60;0.55;;;;;;;28.32;37.45;100944.09;5033554;28;20075;-61
2022/07/05 07:27:06;;;;;;;0.70;0.40;;;;;;;28.29;36.98;100943.50;5033499;28;20073;-61
2022/07/05 07:29:33;;;;;;;1.45;0.50;;;;;;;28.30;37.48;100931.72;5015440;28;20034;-61
2022/07/05 07:32:00;;;;;;;0.60;0.32;;;;;;;28.35;37.21;100935.72;5000043;28;20148;-61
2022/07/05 07:34:26;;;;;;;1.35;0.43;;;;;;;28.43;36.95;100935.94;5015817;28;20034;-61
2022/07/05 07:36:53;;;;;;;2.35;0.63;;;;;;;28.25;37.37;100940.25;5015739;28;20054;-61
2022/07/05 07:39:19;;;;;;;0.68;0.30;;;;;;;28.21;36.24;100936.94;5013559;28;20474;-61
2022/07/05 07:41:44;;;;;;;2.47;0.40;;;;;;;28.02;35.94;100938.66;5032069;28;20613;-61
2022/07/05 07:44:10;;;;;;;1.50;0.65;;;;;;;28.07;37.68;100937.28;5032213;28;20138;-61
2022/07/05 07:46:39;;;;;;;2.42;0.60;;;;;;;28.14;37.30;100935.75;5015854;28;20036;-62
2022/07/05 07:49:04;;;;;;;1.52;0.30;;;;;;;27.87;36.67;100930.03;5027526;28;20362;-61
2022/07/05 07:51:30;;;;;;;2.25;0.65;;;;;;;27.87;36.41;100928.19;5010104;28;20036;-62
2022/07/05 07:53:55;;;;;;;2.28;0.30;;;;;;;27.99;36.11;100923.56;5014806;28;20038;-61
2022/07/05 07:56:21;;;;;;;1.02;0.47;;;;;;;27.72;34.76;100924.91;5033194;28;20030;-61
2022/07/05 07:58:47;;;;;;;0.55;0.40;;;;;;;27.79;36.85;100924.44;5023517;28;20041;-62
2022/07/05 08:01:14;;;;;;;0.80;0.45;;;;;;;28.04;36.87;100920.47;5000127;28;20121;-61
2022/07/05 08:03:43;;;;;;;0.98;0.40;;;;;;;28.22;37.57;100918.88;4999895;28;20385;-59
2022/07/05 08:06:10;;;;;;;0.80;0.50;;;;;;;28.32;37.04;100916.22;4999852;28;20036;-61
2022/07/05 08:08:40;;;;;;;0.70;0.40;;;;;;;28.28;37.52;100922.88;5016064;28;20067;-61
2022/07/05 08:11:07;;;;;;;0.60;0.30;;;;;;;28.29;36.94;100928.16;5004480;28;20041;-62
2022/07/05 08:13:32;;;;;;;1.35;0.50;;;;;;;28.26;36.85;100923.03;5002829;28;20107;-61
2022/07/05 08:15:58;;;;;;;0.70;0.40;;;;;;;28.15;37.27;100918.56;5036771;28;20041;-61
2022/07/05 08:23:53;;;;;;;0.70;0.30;;;;;;;27.96;37.64;100921.97;5036817;28;20044;-61
2022/07/05 08:26:18;;;;;;;1.65;0.38;;;;;;;28.10;37.46;100918.09;5037513;28;20041;-61
2022/07/05 08:28:44;;;;;;;4.90;0.50;;;;;;;28.46;37.08;100914.06;5052224;28;20045;-62
2022/07/05 08:31:09;;;;;;;0.70;0.38;;;;;;;28.62;37.40;100921.66;5036871;28;20029;-61
2022/07/05 08:33:35;;;;;;;0.77;0.40;;;;;;;28.62;37.35;100918.94;5019129;28;20045;-62
2022/07/05 08:36:00;;;;;;;0.95;0.40;;;;;;;27.93;35.25;100914.19;5036696;28;20116;-61
2022/07/05 08:38:26;;;;;;;1.38;0.45;;;;;;;27.51;36.68;100918.66;5002555;28;20038;-61
2022/07/05 08:40:55;;;;;;;1.05;0.40;;;;;;;27.84;36.97;100922.19;5019159;28;20462;-61
2022/07/05 08:43:22;;;;;;;0.85;0.40;;;;;;;28.08;36.06;100925.47;5036582;28;20032;-61
2022/07/05 08:45:49;;;;;;;1.65;0.50;;;;;;;28.02;36.17;100927.88;5018625;28;20029;-61
2022/07/05 08:48:16;;;;;;;1.20;0.60;;;;;;;28.45;35.04;100916.91;5018686;28;20029;-61
2022/07/05 08:50:43;;;;;;;0.75;0.40;;;;;;;28.66;34.11;100920.38;5018442;28;20507;-62
2022/07/05 08:53:10;;;;;;;4.30;0.65;;;;;;;28.43;33.60;100914.31;5019050;28;20040;-61
2022/07/05 08:55:35;;;;;;;0.70;0.30;;;;;;;28.49;34.72;100921.03;5001971;28;20485;-62
2022/07/05 08:58:02;;;;;;;2.10;0.50;;;;;;;28.92;34.79;100926.13;5018087;28;20032;-62
2022/07/05 09:00:28;;;;;;;1.00;0.68;;;;;;;29.26;34.58;100916.84;5018453;28;20033;-60
2022/07/05 09:02:55;;;;;;;2.00;0.35;;;;;;;29.41;34.02;100907.31;5015329;28;20554;-60
2022/07/05 09:05:22;;;;;;;2.80;0.43;;;;;;;29.49;32.79;100909.31;5017500;28;20021;-60
2022/07/05 09:08:01;;;;;;;0.90;0.30;;;;;;;29.62;34.48;100908.03;5034118;28;20040;-62
2022/07/05 09:10:29;;;;;;;1.25;0.40;;;;;;;29.81;32.24;100900.91;5034169;28;20030;-62
2022/07/05 09:12:57;;;;;;;0.88;0.40;;;;;;;30.13;33.27;100909.53;5012078;28;20041;-61
2022/07/05 09:15:23;;;;;;;0.50;0.30;;;;;;;30.35;33.21;100902.91;4998456;28;20057;-62
2022/07/05 09:17:51;;;;;;;1.10;0.40;;;;;;;30.56;32.91;100899.97;4998195;28;20132;-60
2022/07/05 09:20:18;;;;;;;0.75;0.50;;;;;;;30.60;32.49;100898.69;5031427;28;20041;-60
2022/07/05 09:22:46;;;;;;;2.13;0.45;;;;;;;30.63;30.40;100898.34;4982130;28;20123;-61
2022/07/05 09:25:27;;;;;;;0.70;0.35;;;;;;;30.34;29.67;100900.34;5016048;28;20481;-60
2022/07/05 09:27:57;;;;;;;0.68;0.43;;;;;;;30.64;33.10;100893.78;4998680;28;20033;-60
2022/07/05 09:30:30;;;;;;;0.65;0.30;;;;;;;30.99;32.36;100893.03;4998283;28;20037;-60
2022/07/05 09:33:04;;;;;;;2.15;0.43;;;;;;;31.28;32.26;100890.13;4983083;28;20030;-60
2022/07/05 09:35:31;;;;;;;1.27;0.40;;;;;;;30.52;32.26;100893.16;5015551;28;20474;-60
2022/07/05 09:37:57;;;;;;;0.60;0.40;;;;;;;31.01;32.38;100901.03;4998314;28;20030;-62
2022/07/05 09:40:22;;;;;;;1.48;0.47;;;;;;;31.28;32.07;100900.09;4997948;28;20152;-60
2022/07/05 09:42:48;;;;;;;1.60;0.43;;;;;;;31.34;31.92;100900.38;4997817;28;20028;-60
2022/07/05 09:45:24;;;;;;;0.60;0.40;;;;;;;31.42;32.28;100896.88;5014672;28;20059;-60
2022/07/05 09:47:49;;;;;;;1.10;0.40;;;;;;;31.48;30.92;100893.56;5015544;28;20121;-60
2022/07/05 09:50:32;;;;;;;1.35;0.47;;;;;;;31.49;30.37;100889.81;5015372;28;20080;-60
2022/07/05 09:52:57;;;;;;;0.60;0.40;;;;;;;31.12;31.24;100892.66;4998056;28;20445;-61
2022/07/05 09:55:22;;;;;;;0.80;0.30;;;;;;;31.64;31.28;100892.84;4982120;28;20532;-62
2022/07/05 09:57:48;;;;;;;0.47;0.40;;;;;;;31.92;30.84;100896.31;5013055;28;20046;-61
2022/07/05 10:00:19;;;;;;;1.75;0.52;;;;;;;31.55;29.94;100883.75;4996851;28;20042;-62
2022/07/05 10:02:52;;;;;;;3.25;0.60;;;;;;;31.67;30.25;100887.06;5012963;28;20062;-61
2022/07/05 10:05:20;;;;;;;1.33;0.50;;;;;;;31.84;31.12;100883.50;5012929;28;20030;-61
2022/07/05 10:07:50;;;;;;;2.08;0.70;;;;;;;31.92;30.13;100882.72;5019080;28;20037;-60
2022/07/05 10:10:24;;;;;;;0.70;0.50;;;;;;;32.00;30.05;100879.16;5028339;28;20469;-60
2022/07/05 10:12:51;;;;;;;1.20;0.60;;;;;;;31.89;28.46;100883.03;5014353;28;20412;-61
2022/07/05 10:15:20;;;;;;;1.20;0.60;;;;;;;31.62;29.78;100876.69;5023039;28;20040;-60
2022/07/05 10:18:04;;;;;;;1.48;0.77;;;;;;;31.37;27.63;100881.06;5019342;28;20044;-61
2022/07/05 10:20:46;;;;;;;1.15;0.50;;;;;;;31.30;28.70;100884.56;5026960;28;20532;-61
2022/07/05 10:23:14;;;;;;;0.95;0.50;;;;;;;31.32;29.92;100879.81;5023332;28;20033;-60
2022/07/05 10:25:48;;;;;;;2.88;0.80;;;;;;;31.07;28.02;100882.25;5042924;28;20047;-60
2022/07/05 10:28:19;;;;;;;2.15;0.60;;;;;;;30.77;29.52;100872.63;5046422;28;20037;-60
2022/07/05 10:30:46;;;;;;;1.08;0.45;;;;;;;30.64;29.56;100872.97;5017733;28;20088;-61
2022/07/05 10:33:16;;;;;;;1.00;0.50;;;;;;;30.18;29.76;100866.59;5024033;28;20128;-61
2022/07/05 10:35:43;;;;;;;1.55;0.70;;;;;;;29.94;30.59;100868.94;5019466;28;20033;-61
2022/07/05 10:38:10;;;;;;;1.25;0.60;;;;;;;29.81;30.92;100871.97;5000845;28;20041;-61
2022/07/05 10:40:36;;;;;;;0.90;0.63;;;;;;;30.11;30.37;100875.44;5048704;28;20041;-61
2022/07/05 10:43:04;;;;;;;1.30;0.70;;;;;;;30.13;30.64;100858.03;5027659;28;20029;-61
2022/07/05 10:45:34;;;;;;;1.73;0.73;;;;;;;30.23;31.06;100854.47;5049856;28;20087;-61
2022/07/05 10:48:09;;;;;;;2.17;0.85;;;;;;;30.52;29.64;100847.06;5018637;28;20087;-60
2022/07/05 10:50:50;;;;;;;0.80;0.40;;;;;;;30.56;28.31;100850.28;5035991;28;20108;-60
2022/07/05 10:53:31;;;;;;;1.35;0.50;;;;;;;30.84;28.92;100859.28;5019119;28;20507;-60
2022/07/05 10:56:04;;;;;;;0.88;0.50;;;;;;;31.62;29.17;100854.09;5108531;27;20120;-60
2022/07/05 10:58:36;;;;;;;0.90;0.57;;;;;;;31.98;28.94;100852.19;5097409;28;20099;-61
2022/07/05 11:01:20;;;;;;;;;;;;;;;32.43;28.18;100851.06;5066147;28;20060;-60
2022/07/05 11:04:12;;;;;;;1.15;0.52;;;;;;;32.24;28.06;100845.88;5055042;28;19922;-60
2022/07/05 11:06:37;;;;;;;1.15;0.77;;;;;;;32.22;28.25;100847.88;5075809;28;20375;-61
2022/07/05 11:09:03;;;;;;;1.08;0.60;;;;;;;32.57;28.40;100844.16;5076366;28;20122;-61
2022/07/05 11:11:33;;;;;;;2.17;0.80;;;;;;;32.63;28.83;100846.19;5077496;28;20345;-61
2022/07/05 11:14:22;;;;;;;0.85;0.70;;;;;;;33.01;28.31;100833.91;5070482;28;20029;-60
2022/07/05 11:17:11;;;;;;;0.80;0.50;;;;;;;33.17;28.37;100832.22;5088094;28;20028;-61
2022/07/05 11:19:59;;;;;;;1.95;0.68;;;;;;;33.35;28.59;100816.56;5069087;28;20482;-60
2022/07/05 11:22:24;;;;;;;0.88;0.70;;;;;;;33.28;27.21;100824.56;5078158;28;20040;-60
2022/07/05 11:24:50;;;;;;;1.20;0.63;;;;;;;32.69;26.51;100829.22;5075666;28;20055;-60
2022/07/05 11:27:16;;;;;;;2.00;0.60;;;;;;;33.12;27.08;100826.44;5066309;28;20115;-61
2022/07/05 11:29:46;;;;;;;0.63;0.47;;;;;;;33.32;26.98;100827.81;5072474;28;20155;-61